sensor_id;sensor_type;location;lat;lon;timestamp;pressure;altitude;pressure_sealevel;temperature;humidity
25510;BME280;13413;52.336;21.200;2022-11-12T00:02:47;101864.55;;;13.53;69.32
25510;BME280;13413;52.336;21.200;2022-11-12T00:06:06;101862.03;;;13.55;69.30
25510;BME280;13413;52.336;21.200;2022-11-12T00:09:26;101862.98;;;13.54;69.23
25510;BME280;13413;52.336;21.200;2022-11-12T00:12:46;101872.42;;;13.58;69.26
25510;BME280;13413;52.336;21.200;2022-11-12T00:16:06;101874.96;;;13.55;69.19
25510;BME280;13413;52.336;21.200;2022-11-12T00:19:25;101876.34;;;13.52;69.29
25510;BME280;13413;52.336;21.200;2022-11-12T00:22:44;101876.30;;;13.54;69.32
25510;BME280;13413;52.336;21.200;2022-11-12T00:26:06;101875.28;;;13.57;69.36
25510;BME280;13413;52.336;21.200;2022-11-12T00:29:26;101875.79;;;13.58;69.26
25510;BME280;13413;52.336;21.200;2022-11-12T00:32:46;101872.04;;;13.56;69.30
25510;BME280;13413;52.336;21.200;2022-11-12T00:36:07;101878.52;;;13.54;69.36
25510;BME280;13413;52.336;21.200;2022-11-12T00:39:27;101881.38;;;13.55;69.34
25510;BME280;13413;52.336;21.200;2022-11-12T00:42:47;101882.13;;;13.53;69.37
25510;BME280;13413;52.336;21.200;2022-11-12T00:46:10;101875.77;;;13.56;69.32
25510;BME280;13413;52.336;21.200;2022-11-12T00:49:31;101874.52;;;13.53;69.35
25510;BME280;13413;52.336;21.200;2022-11-12T00:52:53;101872.65;;;13.50;69.39
25510;BME280;13413;52.336;21.200;2022-11-12T00:56:13;101867.77;;;13.53;69.43
25510;BME280;13413;52.336;21.200;2022-11-12T00:59:34;101868.40;;;13.54;69.39
25510;BME280;13413;52.336;21.200;2022-11-12T01:02:53;101866.58;;;13.52;69.33
25510;BME280;13413;52.336;21.200;2022-11-12T01:06:16;101870.84;;;13.54;69.44
25510;BME280;13413;52.336;21.200;2022-11-12T01:09:36;101871.83;;;13.53;69.42
25510;BME280;13413;52.336;21.200;2022-11-12T01:12:56;101864.63;;;13.54;69.39
25510;BME280;13413;52.336;21.200;2022-11-12T01:16:17;101864.17;;;13.55;69.40
25510;BME280;13413;52.336;21.200;2022-11-12T01:19:37;101863.84;;;13.56;69.38
25510;BME280;13413;52.336;21.200;2022-11-12T01:22:56;101866.54;;;13.60;69.34
25510;BME280;13413;52.336;21.200;2022-11-12T01:26:17;101861.25;;;13.57;69.33
25510;BME280;13413;52.336;21.200;2022-11-12T01:29:38;101864.48;;;13.57;69.34
25510;BME280;13413;52.336;21.200;2022-11-12T01:32:58;101868.02;;;13.57;69.38
25510;BME280;13413;52.336;21.200;2022-11-12T01:36:18;101872.52;;;13.58;69.36
25510;BME280;13413;52.336;21.200;2022-11-12T01:39:37;101871.86;;;13.58;69.32
25510;BME280;13413;52.336;21.200;2022-11-12T01:42:57;101869.50;;;13.56;69.38
25510;BME280;13413;52.336;21.200;2022-11-12T01:46:25;101872.35;;;13.58;69.42
25510;BME280;13413;52.336;21.200;2022-11-12T01:49:48;101871.19;;;13.64;69.38
25510;BME280;13413;52.336;21.200;2022-11-12T01:53:11;101868.11;;;13.68;69.28
25510;BME280;13413;52.336;21.200;2022-11-12T01:56:32;101868.91;;;13.69;69.28
25510;BME280;13413;52.336;21.200;2022-11-12T01:59:54;101874.08;;;13.67;69.17
25510;BME280;13413;52.336;21.200;2022-11-12T02:03:21;101869.25;;;13.62;69.19
25510;BME280;13413;52.336;21.200;2022-11-12T02:06:41;101865.98;;;13.58;69.31
25510;BME280;13413;52.336;21.200;2022-11-12T02:10:02;101867.95;;;13.61;69.35
25510;BME280;13413;52.336;21.200;2022-11-12T02:13:23;101868.33;;;13.66;69.23
25510;BME280;13413;52.336;21.200;2022-11-12T02:16:44;101868.63;;;13.65;69.30
25510;BME280;13413;52.336;21.200;2022-11-12T02:20:09;101867.38;;;13.67;69.19
25510;BME280;13413;52.336;21.200;2022-11-12T02:23:29;101873.66;;;13.64;69.21
25510;BME280;13413;52.336;21.200;2022-11-12T02:26:52;101872.15;;;13.67;69.26
25510;BME280;13413;52.336;21.200;2022-11-12T02:30:13;101871.88;;;13.68;69.18
25510;BME280;13413;52.336;21.200;2022-11-12T02:33:33;101872.13;;;13.64;69.20
25510;BME280;13413;52.336;21.200;2022-11-12T02:36:52;101872.52;;;13.65;69.26
25510;BME280;13413;52.336;21.200;2022-11-12T02:40:12;101874.55;;;13.64;69.29
25510;BME280;13413;52.336;21.200;2022-11-12T02:43:31;101870.80;;;13.63;69.22
25510;BME280;13413;52.336;21.200;2022-11-12T02:46:50;101874.67;;;13.62;69.22
25510;BME280;13413;52.336;21.200;2022-11-12T02:50:10;101875.72;;;13.62;69.37
25510;BME280;13413;52.336;21.200;2022-11-12T02:53:29;101876.98;;;13.62;69.33
25510;BME280;13413;52.336;21.200;2022-11-12T02:56:48;101882.90;;;13.59;69.25
25510;BME280;13413;52.336;21.200;2022-11-12T03:00:11;101883.96;;;13.59;69.28
25510;BME280;13413;52.336;21.200;2022-11-12T03:03:32;101884.32;;;13.63;69.28
25510;BME280;13413;52.336;21.200;2022-11-12T03:06:52;101884.16;;;13.63;69.25
25510;BME280;13413;52.336;21.200;2022-11-12T03:10:12;101886.85;;;13.62;69.22
25510;BME280;13413;52.336;21.200;2022-11-12T03:13:32;101890.50;;;13.58;69.31
25510;BME280;13413;52.336;21.200;2022-11-12T03:16:52;101892.14;;;13.60;69.33
25510;BME280;13413;52.336;21.200;2022-11-12T03:20:12;101893.60;;;13.59;69.32
25510;BME280;13413;52.336;21.200;2022-11-12T03:23:35;101901.41;;;13.62;69.35
25510;BME280;13413;52.336;21.200;2022-11-12T03:26:54;101900.65;;;13.65;69.28
25510;BME280;13413;52.336;21.200;2022-11-12T03:30:13;101898.77;;;13.66;69.27
25510;BME280;13413;52.336;21.200;2022-11-12T03:33:34;101902.64;;;13.66;69.28
25510;BME280;13413;52.336;21.200;2022-11-12T03:36:54;101899.56;;;13.63;69.30
25510;BME280;13413;52.336;21.200;2022-11-12T03:40:13;101901.41;;;13.61;69.31
25510;BME280;13413;52.336;21.200;2022-11-12T03:46:53;101902.66;;;13.63;69.30
25510;BME280;13413;52.336;21.200;2022-11-12T03:50:13;101901.45;;;13.64;69.30
25510;BME280;13413;52.336;21.200;2022-11-12T03:53:33;101897.95;;;13.63;69.17
25510;BME280;13413;52.336;21.200;2022-11-12T03:56:52;101899.02;;;13.67;69.27
25510;BME280;13413;52.336;21.200;2022-11-12T04:00:13;101896.44;;;13.66;69.23
25510;BME280;13413;52.336;21.200;2022-11-12T04:03:33;101894.89;;;13.65;69.30
25510;BME280;13413;52.336;21.200;2022-11-12T04:06:53;101896.63;;;13.64;69.30
25510;BME280;13413;52.336;21.200;2022-11-12T04:10:13;101895.20;;;13.61;69.34
25510;BME280;13413;52.336;21.200;2022-11-12T04:13:33;101890.96;;;13.64;69.36
25510;BME280;13413;52.336;21.200;2022-11-12T04:16:52;101894.29;;;13.64;69.25
25510;BME280;13413;52.336;21.200;2022-11-12T04:20:11;101896.56;;;13.63;69.32
25510;BME280;13413;52.336;21.200;2022-11-12T04:23:31;101896.80;;;13.63;69.24
25510;BME280;13413;52.336;21.200;2022-11-12T04:26:51;101898.64;;;13.60;69.20
25510;BME280;13413;52.336;21.200;2022-11-12T04:30:12;101893.20;;;13.56;69.08
25510;BME280;13413;52.336;21.200;2022-11-12T04:33:32;101890.35;;;13.53;69.18
25510;BME280;13413;52.336;21.200;2022-11-12T04:36:51;101891.89;;;13.53;69.08
25510;BME280;13413;52.336;21.200;2022-11-12T04:40:12;101890.23;;;13.49;69.05
25510;BME280;13413;52.336;21.200;2022-11-12T04:43:33;101882.24;;;13.45;68.96
25510;BME280;13413;52.336;21.200;2022-11-12T04:46:53;101881.33;;;13.43;68.99
25510;BME280;13413;52.336;21.200;2022-11-12T04:50:17;101881.34;;;13.40;69.07
25510;BME280;13413;52.336;21.200;2022-11-12T04:53:37;101882.06;;;13.34;68.96
25510;BME280;13413;52.336;21.200;2022-11-12T04:56:56;101881.08;;;13.34;68.99
25510;BME280;13413;52.336;21.200;2022-11-12T05:00:17;101881.44;;;13.35;68.90
25510;BME280;13413;52.336;21.200;2022-11-12T05:03:36;101877.54;;;13.34;68.78
25510;BME280;13413;52.336;21.200;2022-11-12T05:06:56;101878.45;;;13.30;68.71
25510;BME280;13413;52.336;21.200;2022-11-12T05:10:16;101878.14;;;13.30;68.82
25510;BME280;13413;52.336;21.200;2022-11-12T05:13:36;101880.96;;;13.33;68.69
25510;BME280;13413;52.336;21.200;2022-11-12T05:16:56;101883.27;;;13.31;68.66
25510;BME280;13413;52.336;21.200;2022-11-12T05:20:17;101885.77;;;13.32;68.60
25510;BME280;13413;52.336;21.200;2022-11-12T05:23:37;101883.13;;;13.28;68.50
25510;BME280;13413;52.336;21.200;2022-11-12T05:26:56;101888.95;;;13.27;68.48
25510;BME280;13413;52.336;21.200;2022-11-12T05:30:16;101889.90;;;13.27;68.42
25510;BME280;13413;52.336;21.200;2022-11-12T05:33:35;101890.91;;;13.28;68.33
25510;BME280;13413;52.336;21.200;2022-11-12T05:36:59;101890.45;;;13.26;68.18
25510;BME280;13413;52.336;21.200;2022-11-12T05:40:19;101886.57;;;13.22;68.15
25510;BME280;13413;52.336;21.200;2022-11-12T05:43:38;101894.56;;;13.22;68.15
25510;BME280;13413;52.336;21.200;2022-11-12T05:46:58;101896.11;;;13.26;68.23
25510;BME280;13413;52.336;21.200;2022-11-12T05:50:17;101908.08;;;13.29;68.00
25510;BME280;13413;52.336;21.200;2022-11-12T05:53:36;101908.33;;;13.25;67.94
25510;BME280;13413;52.336;21.200;2022-11-12T05:56:55;101909.67;;;13.22;67.97
25510;BME280;13413;52.336;21.200;2022-11-12T06:00:17;101908.90;;;13.22;68.00
25510;BME280;13413;52.336;21.200;2022-11-12T06:03:37;101904.26;;;13.21;67.87
25510;BME280;13413;52.336;21.200;2022-11-12T06:06:57;101905.86;;;13.21;67.85
25510;BME280;13413;52.336;21.200;2022-11-12T06:10:17;101912.79;;;13.18;67.87
25510;BME280;13413;52.336;21.200;2022-11-12T06:13:36;101915.96;;;13.16;67.98
25510;BME280;13413;52.336;21.200;2022-11-12T06:16:56;101916.77;;;13.12;67.83
25510;BME280;13413;52.336;21.200;2022-11-12T06:20:15;101922.26;;;13.06;67.92
25510;BME280;13413;52.336;21.200;2022-11-12T06:23:35;101919.05;;;13.01;67.97
25510;BME280;13413;52.336;21.200;2022-11-12T06:26:54;101916.67;;;12.96;67.99
25510;BME280;13413;52.336;21.200;2022-11-12T06:30:14;101922.80;;;12.95;68.02
25510;BME280;13413;52.336;21.200;2022-11-12T06:33:34;101927.04;;;12.94;67.99
25510;BME280;13413;52.336;21.200;2022-11-12T06:36:52;101930.83;;;12.92;67.70
25510;BME280;13413;52.336;21.200;2022-11-12T06:40:12;101927.60;;;12.84;67.68
25510;BME280;13413;52.336;21.200;2022-11-12T06:43:33;101930.20;;;12.76;67.60
25510;BME280;13413;52.336;21.200;2022-11-12T06:46:54;101933.85;;;12.67;67.64
25510;BME280;13413;52.336;21.200;2022-11-12T06:50:12;101930.98;;;12.56;67.67
25510;BME280;13413;52.336;21.200;2022-11-12T06:53:31;101932.39;;;12.60;67.73
25510;BME280;13413;52.336;21.200;2022-11-12T06:56:50;101944.41;;;12.59;67.65
25510;BME280;13413;52.336;21.200;2022-11-12T07:00:23;101950.91;;;12.48;67.70
25510;BME280;13413;52.336;21.200;2022-11-12T07:03:43;101953.20;;;12.41;67.59
25510;BME280;13413;52.336;21.200;2022-11-12T07:07:03;101954.89;;;12.37;67.71
25510;BME280;13413;52.336;21.200;2022-11-12T07:10:22;101959.31;;;12.44;67.66
25510;BME280;13413;52.336;21.200;2022-11-12T07:13:42;101964.51;;;12.40;67.59
25510;BME280;13413;52.336;21.200;2022-11-12T07:17:02;101962.82;;;12.37;67.61
25510;BME280;13413;52.336;21.200;2022-11-12T07:20:21;101960.95;;;12.38;67.70
25510;BME280;13413;52.336;21.200;2022-11-12T07:23:54;101962.89;;;12.44;67.50
25510;BME280;13413;52.336;21.200;2022-11-12T07:27:30;101958.54;;;12.37;67.39
25510;BME280;13413;52.336;21.200;2022-11-12T07:31:05;101961.36;;;12.36;67.59
25510;BME280;13413;52.336;21.200;2022-11-12T07:34:38;101962.35;;;12.42;67.61
25510;BME280;13413;52.336;21.200;2022-11-12T07:38:11;101965.73;;;12.49;67.41
25510;BME280;13413;52.336;21.200;2022-11-12T07:41:44;101976.27;;;12.50;67.49
25510;BME280;13413;52.336;21.200;2022-11-12T07:45:31;101973.87;;;12.53;67.34
25510;BME280;13413;52.336;21.200;2022-11-12T07:49:05;101973.77;;;12.47;67.24
25510;BME280;13413;52.336;21.200;2022-11-12T07:52:38;101977.02;;;12.44;67.32
25510;BME280;13413;52.336;21.200;2022-11-12T07:56:11;101971.95;;;12.38;67.33
25510;BME280;13413;52.336;21.200;2022-11-12T07:59:44;101969.60;;;12.41;67.43
25510;BME280;13413;52.336;21.200;2022-11-12T08:03:17;101963.39;;;12.44;67.50
25510;BME280;13413;52.336;21.200;2022-11-12T08:07:10;101967.10;;;12.46;67.38
25510;BME280;13413;52.336;21.200;2022-11-12T08:10:44;101971.70;;;12.44;67.48
25510;BME280;13413;52.336;21.200;2022-11-12T08:14:17;101973.45;;;12.48;67.45
25510;BME280;13413;52.336;21.200;2022-11-12T08:17:44;101973.23;;;12.45;67.31
25510;BME280;13413;52.336;21.200;2022-11-12T08:21:03;101978.23;;;12.48;67.47
25510;BME280;13413;52.336;21.200;2022-11-12T08:24:23;101979.40;;;12.49;67.55
25510;BME280;13413;52.336;21.200;2022-11-12T08:27:42;101983.08;;;12.55;67.56
25510;BME280;13413;52.336;21.200;2022-11-12T08:31:05;101977.80;;;12.55;67.39
25510;BME280;13413;52.336;21.200;2022-11-12T08:34:38;101975.67;;;12.45;67.41
25510;BME280;13413;52.336;21.200;2022-11-12T08:38:01;101978.02;;;12.50;67.49
25510;BME280;13413;52.336;21.200;2022-11-12T08:41:20;101975.52;;;12.52;67.39
25510;BME280;13413;52.336;21.200;2022-11-12T08:44:39;101985.63;;;12.51;67.40
25510;BME280;13413;52.336;21.200;2022-11-12T08:48:01;101990.56;;;12.55;67.34
25510;BME280;13413;52.336;21.200;2022-11-12T08:51:19;101995.89;;;12.59;67.38
25510;BME280;13413;52.336;21.200;2022-11-12T08:54:39;101992.38;;;12.62;67.29
25510;BME280;13413;52.336;21.200;2022-11-12T08:58:00;101986.27;;;12.66;67.32
25510;BME280;13413;52.336;21.200;2022-11-12T09:01:18;101992.81;;;12.68;67.26
25510;BME280;13413;52.336;21.200;2022-11-12T09:04:37;102002.48;;;12.73;67.19
25510;BME280;13413;52.336;21.200;2022-11-12T09:08:03;101999.77;;;12.77;67.26
25510;BME280;13413;52.336;21.200;2022-11-12T09:11:22;101996.06;;;12.82;67.06
25510;BME280;13413;52.336;21.200;2022-11-12T09:14:43;102000.85;;;12.82;66.99
25510;BME280;13413;52.336;21.200;2022-11-12T09:18:04;102010.11;;;12.80;67.05
25510;BME280;13413;52.336;21.200;2022-11-12T09:21:26;102015.05;;;12.84;67.13
25510;BME280;13413;52.336;21.200;2022-11-12T09:24:45;102017.17;;;12.86;67.03
25510;BME280;13413;52.336;21.200;2022-11-12T09:28:09;102005.33;;;12.83;66.97
25510;BME280;13413;52.336;21.200;2022-11-12T09:31:30;102007.41;;;12.75;66.98
25510;BME280;13413;52.336;21.200;2022-11-12T09:34:49;102008.92;;;12.74;67.08
25510;BME280;13413;52.336;21.200;2022-11-12T09:38:08;102010.24;;;12.73;67.03
25510;BME280;13413;52.336;21.200;2022-11-12T09:41:31;102011.40;;;12.81;67.22
25510;BME280;13413;52.336;21.200;2022-11-12T09:44:56;102010.89;;;12.83;66.94
25510;BME280;13413;52.336;21.200;2022-11-12T09:48:21;102008.02;;;12.80;66.93
25510;BME280;13413;52.336;21.200;2022-11-12T09:51:43;102007.23;;;12.84;66.86
25510;BME280;13413;52.336;21.200;2022-11-12T09:55:13;102011.36;;;12.87;66.99
25510;BME280;13413;52.336;21.200;2022-11-12T09:58:35;102004.96;;;12.92;66.95
25510;BME280;13413;52.336;21.200;2022-11-12T10:02:00;102007.71;;;12.95;66.69
25510;BME280;13413;52.336;21.200;2022-11-12T10:05:27;102015.09;;;12.89;66.69
25510;BME280;13413;52.336;21.200;2022-11-12T10:08:51;102017.79;;;12.87;66.73
25510;BME280;13413;52.336;21.200;2022-11-12T10:12:19;102018.82;;;12.87;66.67
25510;BME280;13413;52.336;21.200;2022-11-12T10:15:46;102011.77;;;12.86;66.70
25510;BME280;13413;52.336;21.200;2022-11-12T10:19:22;102012.39;;;12.80;66.55
25510;BME280;13413;52.336;21.200;2022-11-12T10:23:01;102023.07;;;12.83;66.70
25510;BME280;13413;52.336;21.200;2022-11-12T10:26:26;102030.64;;;12.84;66.64
25510;BME280;13413;52.336;21.200;2022-11-12T10:29:52;102028.49;;;12.86;66.69
25510;BME280;13413;52.336;21.200;2022-11-12T10:33:15;102027.79;;;12.84;66.60
25510;BME280;13413;52.336;21.200;2022-11-12T10:36:36;102025.73;;;12.89;66.67
25510;BME280;13413;52.336;21.200;2022-11-12T10:39:57;102027.94;;;12.90;66.58
25510;BME280;13413;52.336;21.200;2022-11-12T10:43:31;102028.18;;;12.88;66.61
25510;BME280;13413;52.336;21.200;2022-11-12T10:46:50;102031.61;;;12.92;66.52
25510;BME280;13413;52.336;21.200;2022-11-12T10:50:22;102032.95;;;12.86;66.42
25510;BME280;13413;52.336;21.200;2022-11-12T10:53:43;102031.01;;;12.82;66.56
25510;BME280;13413;52.336;21.200;2022-11-12T10:57:20;102030.13;;;12.85;66.49
25510;BME280;13413;52.336;21.200;2022-11-12T11:00:54;102027.45;;;12.84;66.44
25510;BME280;13413;52.336;21.200;2022-11-12T11:04:31;102031.20;;;12.82;66.46
25510;BME280;13413;52.336;21.200;2022-11-12T11:07:55;102033.16;;;12.84;66.48
25510;BME280;13413;52.336;21.200;2022-11-12T11:11:23;102030.02;;;12.89;66.50
25510;BME280;13413;52.336;21.200;2022-11-12T11:14:43;102029.50;;;12.87;66.38
25510;BME280;13413;52.336;21.200;2022-11-12T11:18:02;102029.30;;;12.83;66.32
25510;BME280;13413;52.336;21.200;2022-11-12T11:21:47;102025.54;;;12.84;66.37
25510;BME280;13413;52.336;21.200;2022-11-12T11:25:22;102021.30;;;12.85;66.45
25510;BME280;13413;52.336;21.200;2022-11-12T11:28:49;102021.99;;;12.91;66.31
25510;BME280;13413;52.336;21.200;2022-11-12T11:32:22;102019.60;;;12.93;66.45
25510;BME280;13413;52.336;21.200;2022-11-12T11:35:54;102025.21;;;12.99;66.34
25510;BME280;13413;52.336;21.200;2022-11-12T11:39:24;102034.75;;;13.00;66.27
25510;BME280;13413;52.336;21.200;2022-11-12T11:46:52;102035.59;;;13.04;66.12
25510;BME280;13413;52.336;21.200;2022-11-12T11:50:24;102031.09;;;13.08;66.04
25510;BME280;13413;52.336;21.200;2022-11-12T11:53:53;102034.73;;;13.06;65.97
25510;BME280;13413;52.336;21.200;2022-11-12T11:57:22;102037.38;;;13.10;65.97
25510;BME280;13413;52.336;21.200;2022-11-12T12:00:56;102033.83;;;13.12;66.05
25510;BME280;13413;52.336;21.200;2022-11-12T12:04:38;102023.57;;;13.15;66.06
25510;BME280;13413;52.336;21.200;2022-11-12T12:08:04;102029.67;;;13.19;66.00
25510;BME280;13413;52.336;21.200;2022-11-12T12:11:29;102030.31;;;13.20;65.97
25510;BME280;13413;52.336;21.200;2022-11-12T12:14:57;102022.30;;;13.09;65.93
25510;BME280;13413;52.336;21.200;2022-11-12T12:18:30;102024.74;;;13.14;65.98
25510;BME280;13413;52.336;21.200;2022-11-12T12:21:54;102020.61;;;13.12;65.72
25510;BME280;13413;52.336;21.200;2022-11-12T12:25:17;102026.19;;;13.06;65.67
25510;BME280;13413;52.336;21.200;2022-11-12T12:28:42;102021.63;;;13.04;65.69
25510;BME280;13413;52.336;21.200;2022-11-12T12:32:09;102022.61;;;13.08;65.77
25510;BME280;13413;52.336;21.200;2022-11-12T12:35:33;102024.09;;;13.08;65.71
25510;BME280;13413;52.336;21.200;2022-11-12T12:38:56;102029.81;;;13.00;65.54
25510;BME280;13413;52.336;21.200;2022-11-12T12:42:27;102024.02;;;13.01;65.73
25510;BME280;13413;52.336;21.200;2022-11-12T12:45:48;102030.17;;;13.01;65.58
25510;BME280;13413;52.336;21.200;2022-11-12T12:49:14;102026.94;;;13.04;65.69
25510;BME280;13413;52.336;21.200;2022-11-12T12:52:59;102021.29;;;13.13;65.58
25510;BME280;13413;52.336;21.200;2022-11-12T12:56:45;102021.55;;;13.12;65.34
25510;BME280;13413;52.336;21.200;2022-11-12T13:00:27;102022.39;;;13.14;65.52
25510;BME280;13413;52.336;21.200;2022-11-12T13:03:56;102025.97;;;13.14;65.37
25510;BME280;13413;52.336;21.200;2022-11-12T13:07:17;102021.58;;;13.14;65.39
25510;BME280;13413;52.336;21.200;2022-11-12T13:10:54;102033.10;;;13.12;65.39
25510;BME280;13413;52.336;21.200;2022-11-12T13:18:09;102037.70;;;13.10;65.42
25510;BME280;13413;52.336;21.200;2022-11-12T13:21:29;102033.98;;;13.14;65.40
25510;BME280;13413;52.336;21.200;2022-11-12T13:25:03;102040.23;;;13.15;65.39
25510;BME280;13413;52.336;21.200;2022-11-12T13:28:24;102043.32;;;13.14;65.37
25510;BME280;13413;52.336;21.200;2022-11-12T13:31:44;102041.39;;;13.18;65.25
25510;BME280;13413;52.336;21.200;2022-11-12T13:35:27;102038.60;;;13.15;65.24
25510;BME280;13413;52.336;21.200;2022-11-12T13:38:49;102043.33;;;13.16;65.21
25510;BME280;13413;52.336;21.200;2022-11-12T13:42:13;102040.25;;;13.17;65.22
25510;BME280;13413;52.336;21.200;2022-11-12T13:45:40;102034.88;;;13.19;65.11
25510;BME280;13413;52.336;21.200;2022-11-12T13:49:04;102035.84;;;13.11;65.17
25510;BME280;13413;52.336;21.200;2022-11-12T13:52:24;102030.73;;;13.14;65.29
25510;BME280;13413;52.336;21.200;2022-11-12T13:55:49;102026.88;;;13.19;65.22
25510;BME280;13413;52.336;21.200;2022-11-12T13:59:14;102023.08;;;13.18;65.34
25510;BME280;13413;52.336;21.200;2022-11-12T14:02:34;102031.92;;;13.15;65.33
25510;BME280;13413;52.336;21.200;2022-11-12T14:05:55;102037.34;;;13.10;65.26
25510;BME280;13413;52.336;21.200;2022-11-12T14:09:33;102038.03;;;13.09;65.34
25510;BME280;13413;52.336;21.200;2022-11-12T14:13:11;102033.63;;;13.10;65.49
25510;BME280;13413;52.336;21.200;2022-11-12T14:16:46;102038.02;;;13.11;65.50
25510;BME280;13413;52.336;21.200;2022-11-12T14:20:22;102032.34;;;13.17;65.38
25510;BME280;13413;52.336;21.200;2022-11-12T14:23:45;102037.98;;;13.13;65.42
25510;BME280;13413;52.336;21.200;2022-11-12T14:27:22;102038.56;;;13.16;65.40
25510;BME280;13413;52.336;21.200;2022-11-12T14:30:46;102035.93;;;13.12;65.47
25510;BME280;13413;52.336;21.200;2022-11-12T14:34:26;102038.59;;;13.17;65.59
25510;BME280;13413;52.336;21.200;2022-11-12T14:37:49;102040.33;;;13.18;65.53
25510;BME280;13413;52.336;21.200;2022-11-12T14:41:14;102035.99;;;13.18;65.48
25510;BME280;13413;52.336;21.200;2022-11-12T14:44:38;102035.88;;;13.16;65.45
25510;BME280;13413;52.336;21.200;2022-11-12T14:47:57;102032.95;;;13.15;65.57
25510;BME280;13413;52.336;21.200;2022-11-12T14:51:17;102032.48;;;13.16;65.55
25510;BME280;13413;52.336;21.200;2022-11-12T14:54:43;102032.98;;;13.13;65.43
25510;BME280;13413;52.336;21.200;2022-11-12T14:58:05;102035.92;;;13.08;65.59
25510;BME280;13413;52.336;21.200;2022-11-12T15:01:26;102027.98;;;13.06;65.63
25510;BME280;13413;52.336;21.200;2022-11-12T15:04:51;102039.14;;;13.03;65.73
25510;BME280;13413;52.336;21.200;2022-11-12T15:08:12;102033.52;;;13.06;65.73
25510;BME280;13413;52.336;21.200;2022-11-12T15:11:47;102031.95;;;13.05;65.77
25510;BME280;13413;52.336;21.200;2022-11-12T15:15:15;102030.96;;;13.08;65.82
25510;BME280;13413;52.336;21.200;2022-11-12T15:18:37;102042.08;;;13.09;65.82
25510;BME280;13413;52.336;21.200;2022-11-12T15:21:59;102041.15;;;13.09;65.84
25510;BME280;13413;52.336;21.200;2022-11-12T15:25:22;102050.91;;;13.07;65.91
25510;BME280;13413;52.336;21.200;2022-11-12T15:28:45;102046.23;;;13.19;65.86
25510;BME280;13413;52.336;21.200;2022-11-12T15:32:33;102046.86;;;13.23;65.82
25510;BME280;13413;52.336;21.200;2022-11-12T15:35:57;102048.24;;;13.33;65.75
25510;BME280;13413;52.336;21.200;2022-11-12T15:39:17;102043.17;;;13.28;65.61
25510;BME280;13413;52.336;21.200;2022-11-12T15:42:39;102051.70;;;13.26;65.79
25510;BME280;13413;52.336;21.200;2022-11-12T15:45:59;102056.13;;;13.32;65.80
25510;BME280;13413;52.336;21.200;2022-11-12T15:49:20;102055.11;;;13.33;65.72
25510;BME280;13413;52.336;21.200;2022-11-12T15:52:40;102050.80;;;13.23;65.66
25510;BME280;13413;52.336;21.200;2022-11-12T15:56:00;102059.61;;;13.15;65.82
25510;BME280;13413;52.336;21.200;2022-11-12T15:59:20;102062.21;;;13.12;65.91
25510;BME280;13413;52.336;21.200;2022-11-12T16:02:39;102072.20;;;13.19;66.00
25510;BME280;13413;52.336;21.200;2022-11-12T16:05:58;102067.09;;;13.16;65.88
25510;BME280;13413;52.336;21.200;2022-11-12T16:09:18;102073.29;;;13.17;66.00
25510;BME280;13413;52.336;21.200;2022-11-12T16:12:37;102081.73;;;13.16;66.01
25510;BME280;13413;52.336;21.200;2022-11-12T16:15:56;102081.74;;;13.16;66.02
25510;BME280;13413;52.336;21.200;2022-11-12T16:19:15;102090.86;;;13.17;66.10
25510;BME280;13413;52.336;21.200;2022-11-12T16:22:35;102097.23;;;13.22;66.08
25510;BME280;13413;52.336;21.200;2022-11-12T16:25:55;102095.65;;;13.26;66.04
25510;BME280;13413;52.336;21.200;2022-11-12T16:29:15;102092.67;;;13.17;66.00
25510;BME280;13413;52.336;21.200;2022-11-12T16:32:35;102094.77;;;13.17;66.22
25510;BME280;13413;52.336;21.200;2022-11-12T16:35:54;102099.30;;;13.28;66.08
25510;BME280;13413;52.336;21.200;2022-11-12T16:39:13;102095.18;;;13.36;65.92
25510;BME280;13413;52.336;21.200;2022-11-12T16:42:33;102093.33;;;13.31;65.91
25510;BME280;13413;52.336;21.200;2022-11-12T16:45:52;102096.10;;;13.30;65.93
25510;BME280;13413;52.336;21.200;2022-11-12T16:49:13;102095.21;;;13.32;65.99
25510;BME280;13413;52.336;21.200;2022-11-12T16:52:33;102087.21;;;13.32;65.98
25510;BME280;13413;52.336;21.200;2022-11-12T16:55:52;102087.44;;;13.32;66.02
25510;BME280;13413;52.336;21.200;2022-11-12T16:59:12;102088.02;;;13.29;66.07
25510;BME280;13413;52.336;21.200;2022-11-12T17:02:31;102087.77;;;13.32;66.11
25510;BME280;13413;52.336;21.200;2022-11-12T17:05:52;102083.62;;;13.32;66.09
25510;BME280;13413;52.336;21.200;2022-11-12T17:09:12;102081.27;;;13.37;66.15
25510;BME280;13413;52.336;21.200;2022-11-12T17:12:30;102081.61;;;13.42;66.21
25510;BME280;13413;52.336;21.200;2022-11-12T17:15:56;102077.80;;;13.44;66.17
25510;BME280;13413;52.336;21.200;2022-11-12T17:19:16;102073.81;;;13.41;66.02
25510;BME280;13413;52.336;21.200;2022-11-12T17:22:37;102071.10;;;13.33;66.16
25510;BME280;13413;52.336;21.200;2022-11-12T17:26:04;102078.25;;;13.35;66.27
25510;BME280;13413;52.336;21.200;2022-11-12T17:29:24;102075.20;;;13.38;66.26
25510;BME280;13413;52.336;21.200;2022-11-12T17:32:44;102074.67;;;13.35;66.26
25510;BME280;13413;52.336;21.200;2022-11-12T17:36:04;102078.42;;;13.35;66.34
25510;BME280;13413;52.336;21.200;2022-11-12T17:39:25;102076.11;;;13.35;66.34
25510;BME280;13413;52.336;21.200;2022-11-12T17:42:44;102085.70;;;13.36;66.38